sensor_id;sensor_type;location;lat;lon;timestamp;pressure;altitude;pressure_sealevel;temperature
19644;BMP180;9970;-36.854;174.870;2023-02-15T00:00:53;99654.00;;;23.60
19644;BMP180;9970;-36.854;174.870;2023-02-15T00:03:26;99660.00;;;23.60
19644;BMP180;9970;-36.854;174.870;2023-02-15T00:05:59;99671.00;;;23.70
19644;BMP180;9970;-36.854;174.870;2023-02-15T00:08:32;99678.00;;;23.70
19644;BMP180;9970;-36.854;174.870;2023-02-15T00:11:09;99666.00;;;23.80
19644;BMP180;9970;-36.854;174.870;2023-02-15T00:13:42;99667.00;;;23.70
19644;BMP180;9970;-36.854;174.870;2023-02-15T00:16:15;99669.00;;;23.70
19644;BMP180;9970;-36.854;174.870;2023-02-15T00:18:48;99671.00;;;23.70
19644;BMP180;9970;-36.854;174.870;2023-02-15T00:21:22;99663.00;;;23.60
19644;BMP180;9970;-36.854;174.870;2023-02-15T00:23:56;99669.00;;;23.60
19644;BMP180;9970;-36.854;174.870;2023-02-15T00:26:29;99676.00;;;23.60
19644;BMP180;9970;-36.854;174.870;2023-02-15T00:29:02;99672.00;;;23.60
19644;BMP180;9970;-36.854;174.870;2023-02-15T00:31:36;99668.00;;;23.60
19644;BMP180;9970;-36.854;174.870;2023-02-15T00:34:14;99675.00;;;23.60
19644;BMP180;9970;-36.854;174.870;2023-02-15T00:36:46;99659.00;;;23.60
19644;BMP180;9970;-36.854;174.870;2023-02-15T00:39:19;99661.00;;;23.60
19644;BMP180;9970;-36.854;174.870;2023-02-15T00:41:52;99654.00;;;23.60
19644;BMP180;9970;-36.854;174.870;2023-02-15T00:44:25;99662.00;;;23.70
19644;BMP180;9970;-36.854;174.870;2023-02-15T00:46:58;99667.00;;;23.70
19644;BMP180;9970;-36.854;174.870;2023-02-15T00:49:31;99669.00;;;23.70
19644;BMP180;9970;-36.854;174.870;2023-02-15T00:52:04;99672.00;;;23.70
19644;BMP180;9970;-36.854;174.870;2023-02-15T00:54:37;99669.00;;;23.60
19644;BMP180;9970;-36.854;174.870;2023-02-15T00:57:10;99671.00;;;23.60
19644;BMP180;9970;-36.854;174.870;2023-02-15T00:59:43;99672.00;;;23.60
19644;BMP180;9970;-36.854;174.870;2023-02-15T01:02:15;99662.00;;;23.60
19644;BMP180;9970;-36.854;174.870;2023-02-15T01:04:49;99666.00;;;23.60
19644;BMP180;9970;-36.854;174.870;2023-02-15T01:07:21;99653.00;;;23.60
19644;BMP180;9970;-36.854;174.870;2023-02-15T01:09:54;99647.00;;;23.60
19644;BMP180;9970;-36.854;174.870;2023-02-15T01:12:27;99670.00;;;23.60
19644;BMP180;9970;-36.854;174.870;2023-02-15T01:15:00;99670.00;;;23.60
19644;BMP180;9970;-36.854;174.870;2023-02-15T01:17:33;99685.00;;;23.60
19644;BMP180;9970;-36.854;174.870;2023-02-15T01:20:07;99683.00;;;23.70
19644;BMP180;9970;-36.854;174.870;2023-02-15T01:22:40;99678.00;;;23.70
19644;BMP180;9970;-36.854;174.870;2023-02-15T01:25:13;99673.00;;;23.70
19644;BMP180;9970;-36.854;174.870;2023-02-15T01:27:46;99679.00;;;23.70
19644;BMP180;9970;-36.854;174.870;2023-02-15T01:30:19;99674.00;;;23.80
19644;BMP180;9970;-36.854;174.870;2023-02-15T01:32:52;99689.00;;;23.80
19644;BMP180;9970;-36.854;174.870;2023-02-15T01:35:25;99685.00;;;23.80
19644;BMP180;9970;-36.854;174.870;2023-02-15T01:37:58;99693.00;;;23.80
19644;BMP180;9970;-36.854;174.870;2023-02-15T01:40:31;99702.00;;;23.80
19644;BMP180;9970;-36.854;174.870;2023-02-15T01:43:07;99690.00;;;23.80
19644;BMP180;9970;-36.854;174.870;2023-02-15T01:45:38;99693.00;;;23.90
19644;BMP180;9970;-36.854;174.870;2023-02-15T01:48:19;99690.00;;;23.90
19644;BMP180;9970;-36.854;174.870;2023-02-15T01:50:54;99695.00;;;23.90
19644;BMP180;9970;-36.854;174.870;2023-02-15T01:53:47;99688.00;;;23.90
19644;BMP180;9970;-36.854;174.870;2023-02-15T01:56:24;99691.00;;;23.80
19644;BMP180;9970;-36.854;174.870;2023-02-15T01:58:56;99701.00;;;23.70
19644;BMP180;9970;-36.854;174.870;2023-02-15T02:01:30;99707.00;;;23.70
19644;BMP180;9970;-36.854;174.870;2023-02-15T02:06:55;99701.00;;;23.80
19644;BMP180;9970;-36.854;174.870;2023-02-15T02:09:30;99709.00;;;23.70
19644;BMP180;9970;-36.854;174.870;2023-02-15T02:12:03;99703.00;;;23.70
19644;BMP180;9970;-36.854;174.870;2023-02-15T02:14:36;99692.00;;;23.70
19644;BMP180;9970;-36.854;174.870;2023-02-15T02:17:37;99691.00;;;23.60
19644;BMP180;9970;-36.854;174.870;2023-02-15T02:20:25;99694.00;;;23.60
19644;BMP180;9970;-36.854;174.870;2023-02-15T02:39:37;99671.00;;;23.60
19644;BMP180;9970;-36.854;174.870;2023-02-15T02:45:12;99676.00;;;23.60
19644;BMP180;9970;-36.854;174.870;2023-02-15T02:47:43;99659.00;;;23.60
19644;BMP180;9970;-36.854;174.870;2023-02-15T02:50:21;99660.00;;;23.60
19644;BMP180;9970;-36.854;174.870;2023-02-15T02:52:53;99667.00;;;23.60
19644;BMP180;9970;-36.854;174.870;2023-02-15T02:55:31;99661.00;;;23.60
19644;BMP180;9970;-36.854;174.870;2023-02-15T02:58:20;99663.00;;;23.60
19644;BMP180;9970;-36.854;174.870;2023-02-15T03:00:59;99663.00;;;23.60
19644;BMP180;9970;-36.854;174.870;2023-02-15T03:03:44;99660.00;;;23.60
19644;BMP180;9970;-36.854;174.870;2023-02-15T03:06:15;99684.00;;;23.60
19644;BMP180;9970;-36.854;174.870;2023-02-15T03:09:00;99682.00;;;23.60
19644;BMP180;9970;-36.854;174.870;2023-02-15T03:11:27;99689.00;;;23.60
19644;BMP180;9970;-36.854;174.870;2023-02-15T03:14:00;99687.00;;;23.60
19644;BMP180;9970;-36.854;174.870;2023-02-15T03:16:32;99679.00;;;23.50
19644;BMP180;9970;-36.854;174.870;2023-02-15T03:19:16;99688.00;;;23.50
19644;BMP180;9970;-36.854;174.870;2023-02-15T03:21:56;99682.00;;;23.50
19644;BMP180;9970;-36.854;174.870;2023-02-15T03:24:34;99687.00;;;23.40
19644;BMP180;9970;-36.854;174.870;2023-02-15T03:27:08;99671.00;;;23.40
19644;BMP180;9970;-36.854;174.870;2023-02-15T03:29:41;99661.00;;;23.30
19644;BMP180;9970;-36.854;174.870;2023-02-15T03:32:14;99669.00;;;23.30
19644;BMP180;9970;-36.854;174.870;2023-02-15T03:34:48;99677.00;;;23.20
19644;BMP180;9970;-36.854;174.870;2023-02-15T03:37:35;99693.00;;;23.20
19644;BMP180;9970;-36.854;174.870;2023-02-15T03:43:13;99673.00;;;23.10
19644;BMP180;9970;-36.854;174.870;2023-02-15T03:45:46;99688.00;;;23.10
19644;BMP180;9970;-36.854;174.870;2023-02-15T03:48:30;99685.00;;;23.00
19644;BMP180;9970;-36.854;174.870;2023-02-15T03:51:08;99698.00;;;23.00
19644;BMP180;9970;-36.854;174.870;2023-02-15T03:53:55;99675.00;;;22.90
19644;BMP180;9970;-36.854;174.870;2023-02-15T03:56:28;99685.00;;;22.90
19644;BMP180;9970;-36.854;174.870;2023-02-15T03:59:01;99678.00;;;22.90
19644;BMP180;9970;-36.854;174.870;2023-02-15T04:01:59;99689.00;;;22.80
19644;BMP180;9970;-36.854;174.870;2023-02-15T04:04:37;99680.00;;;22.80
19644;BMP180;9970;-36.854;174.870;2023-02-15T04:07:10;99661.00;;;22.80
19644;BMP180;9970;-36.854;174.870;2023-02-15T04:09:43;99668.00;;;22.80
19644;BMP180;9970;-36.854;174.870;2023-02-15T04:12:34;99680.00;;;22.80
19644;BMP180;9970;-36.854;174.870;2023-02-15T04:15:08;99674.00;;;22.70
19644;BMP180;9970;-36.854;174.870;2023-02-15T04:17:57;99685.00;;;22.70
19644;BMP180;9970;-36.854;174.870;2023-02-15T04:20:30;99686.00;;;22.70
19644;BMP180;9970;-36.854;174.870;2023-02-15T04:23:21;99687.00;;;22.70
19644;BMP180;9970;-36.854;174.870;2023-02-15T04:26:11;99693.00;;;22.60
19644;BMP180;9970;-36.854;174.870;2023-02-15T04:28:43;99690.00;;;22.60
19644;BMP180;9970;-36.854;174.870;2023-02-15T04:31:16;99683.00;;;22.60
19644;BMP180;9970;-36.854;174.870;2023-02-15T04:33:49;99692.00;;;22.60
19644;BMP180;9970;-36.854;174.870;2023-02-15T04:36:22;99687.00;;;22.50
19644;BMP180;9970;-36.854;174.870;2023-02-15T04:38:55;99691.00;;;22.50
19644;BMP180;9970;-36.854;174.870;2023-02-15T04:41:28;99702.00;;;22.50
19644;BMP180;9970;-36.854;174.870;2023-02-15T04:44:01;99698.00;;;22.50
19644;BMP180;9970;-36.854;174.870;2023-02-15T04:46:34;99696.00;;;22.50
19644;BMP180;9970;-36.854;174.870;2023-02-15T04:49:07;99696.00;;;22.50
19644;BMP180;9970;-36.854;174.870;2023-02-15T04:51:40;99710.00;;;22.40
19644;BMP180;9970;-36.854;174.870;2023-02-15T04:54:13;99713.00;;;22.40
19644;BMP180;9970;-36.854;174.870;2023-02-15T04:56:46;99727.00;;;22.40
19644;BMP180;9970;-36.854;174.870;2023-02-15T04:59:19;99722.00;;;22.30
19644;BMP180;9970;-36.854;174.870;2023-02-15T05:01:52;99716.00;;;22.30
19644;BMP180;9970;-36.854;174.870;2023-02-15T05:04:25;99710.00;;;22.30
19644;BMP180;9970;-36.854;174.870;2023-02-15T05:06:58;99712.00;;;22.20
19644;BMP180;9970;-36.854;174.870;2023-02-15T05:09:31;99717.00;;;22.10
19644;BMP180;9970;-36.854;174.870;2023-02-15T05:12:04;99710.00;;;22.10
19644;BMP180;9970;-36.854;174.870;2023-02-15T05:14:37;99718.00;;;22.10
19644;BMP180;9970;-36.854;174.870;2023-02-15T05:17:11;99734.00;;;22.00
19644;BMP180;9970;-36.854;174.870;2023-02-15T05:19:44;99734.00;;;22.00
19644;BMP180;9970;-36.854;174.870;2023-02-15T05:22:17;99724.00;;;21.90
19644;BMP180;9970;-36.854;174.870;2023-02-15T05:24:50;99717.00;;;21.90
19644;BMP180;9970;-36.854;174.870;2023-02-15T05:27:41;99714.00;;;21.80
19644;BMP180;9970;-36.854;174.870;2023-02-15T05:30:32;99716.00;;;21.80
19644;BMP180;9970;-36.854;174.870;2023-02-15T05:33:11;99715.00;;;21.80
19644;BMP180;9970;-36.854;174.870;2023-02-15T05:35:39;99717.00;;;21.70
19644;BMP180;9970;-36.854;174.870;2023-02-15T05:38:12;99719.00;;;21.70
19644;BMP180;9970;-36.854;174.870;2023-02-15T05:40:45;99724.00;;;21.70
19644;BMP180;9970;-36.854;174.870;2023-02-15T05:43:18;99731.00;;;21.70
19644;BMP180;9970;-36.854;174.870;2023-02-15T05:45:52;99739.00;;;21.70
19644;BMP180;9970;-36.854;174.870;2023-02-15T05:48:26;99733.00;;;21.60
19644;BMP180;9970;-36.854;174.870;2023-02-15T05:51:04;99737.00;;;21.60
19644;BMP180;9970;-36.854;174.870;2023-02-15T05:53:38;99745.00;;;21.60
19644;BMP180;9970;-36.854;174.870;2023-02-15T05:56:12;99746.00;;;21.60
19644;BMP180;9970;-36.854;174.870;2023-02-15T05:58:45;99753.00;;;21.60
19644;BMP180;9970;-36.854;174.870;2023-02-15T06:01:19;99753.00;;;21.60
19644;BMP180;9970;-36.854;174.870;2023-02-15T06:03:53;99755.00;;;21.60
19644;BMP180;9970;-36.854;174.870;2023-02-15T06:06:27;99758.00;;;21.60
19644;BMP180;9970;-36.854;174.870;2023-02-15T06:08:59;99757.00;;;21.50
19644;BMP180;9970;-36.854;174.870;2023-02-15T06:11:32;99755.00;;;21.50
19644;BMP180;9970;-36.854;174.870;2023-02-15T06:14:05;99758.00;;;21.50
19644;BMP180;9970;-36.854;174.870;2023-02-15T06:16:38;99748.00;;;21.50
19644;BMP180;9970;-36.854;174.870;2023-02-15T06:19:11;99751.00;;;21.40
19644;BMP180;9970;-36.854;174.870;2023-02-15T06:21:44;99751.00;;;21.40
19644;BMP180;9970;-36.854;174.870;2023-02-15T06:24:17;99759.00;;;21.40
19644;BMP180;9970;-36.854;174.870;2023-02-15T06:26:50;99760.00;;;21.40
19644;BMP180;9970;-36.854;174.870;2023-02-15T06:29:23;99769.00;;;21.30
19644;BMP180;9970;-36.854;174.870;2023-02-15T06:31:56;99768.00;;;21.30
19644;BMP180;9970;-36.854;174.870;2023-02-15T06:34:29;99764.00;;;21.30
19644;BMP180;9970;-36.854;174.870;2023-02-15T06:37:02;99762.00;;;21.30
19644;BMP180;9970;-36.854;174.870;2023-02-15T06:39:35;99758.00;;;21.20
19644;BMP180;9970;-36.854;174.870;2023-02-15T06:42:08;99765.00;;;21.20
19644;BMP180;9970;-36.854;174.870;2023-02-15T06:44:41;99774.00;;;21.20
19644;BMP180;9970;-36.854;174.870;2023-02-15T06:47:14;99777.00;;;21.20
19644;BMP180;9970;-36.854;174.870;2023-02-15T06:49:47;99775.00;;;21.20
19644;BMP180;9970;-36.854;174.870;2023-02-15T06:52:20;99782.00;;;21.20
19644;BMP180;9970;-36.854;174.870;2023-02-15T06:54:53;99783.00;;;21.20
19644;BMP180;9970;-36.854;174.870;2023-02-15T06:57:26;99792.00;;;21.20
19644;BMP180;9970;-36.854;174.870;2023-02-15T07:00:00;99787.00;;;21.10
19644;BMP180;9970;-36.854;174.870;2023-02-15T07:02:33;99781.00;;;21.10
19644;BMP180;9970;-36.854;174.870;2023-02-15T07:05:06;99795.00;;;21.10
19644;BMP180;9970;-36.854;174.870;2023-02-15T07:07:39;99794.00;;;21.10
19644;BMP180;9970;-36.854;174.870;2023-02-15T07:10:12;99788.00;;;21.10
19644;BMP180;9970;-36.854;174.870;2023-02-15T07:12:45;99792.00;;;21.10
19644;BMP180;9970;-36.854;174.870;2023-02-15T07:15:19;99799.00;;;21.00
19644;BMP180;9970;-36.854;174.870;2023-02-15T07:17:55;99818.00;;;21.00
19644;BMP180;9970;-36.854;174.870;2023-02-15T07:20:30;99802.00;;;21.00
19644;BMP180;9970;-36.854;174.870;2023-02-15T07:23:05;99797.00;;;21.00
19644;BMP180;9970;-36.854;174.870;2023-02-15T07:25:39;99802.00;;;21.00
19644;BMP180;9970;-36.854;174.870;2023-02-15T07:28:12;99804.00;;;21.00
19644;BMP180;9970;-36.854;174.870;2023-02-15T07:30:45;99803.00;;;21.00
19644;BMP180;9970;-36.854;174.870;2023-02-15T07:33:18;99826.00;;;21.00
19644;BMP180;9970;-36.854;174.870;2023-02-15T07:35:59;99834.00;;;20.90
19644;BMP180;9970;-36.854;174.870;2023-02-15T07:38:34;99832.00;;;20.90
19644;BMP180;9970;-36.854;174.870;2023-02-15T07:41:09;99838.00;;;20.90
19644;BMP180;9970;-36.854;174.870;2023-02-15T07:43:43;99839.00;;;20.90
19644;BMP180;9970;-36.854;174.870;2023-02-15T07:46:17;99837.00;;;20.80
19644;BMP180;9970;-36.854;174.870;2023-02-15T07:48:51;99834.00;;;20.80
19644;BMP180;9970;-36.854;174.870;2023-02-15T07:51:24;99839.00;;;20.80
19644;BMP180;9970;-36.854;174.870;2023-02-15T07:53:57;99838.00;;;20.80
19644;BMP180;9970;-36.854;174.870;2023-02-15T07:56:30;99834.00;;;20.80
19644;BMP180;9970;-36.854;174.870;2023-02-15T07:59:05;99839.00;;;20.80
19644;BMP180;9970;-36.854;174.870;2023-02-15T08:01:39;99840.00;;;20.70
19644;BMP180;9970;-36.854;174.870;2023-02-15T08:04:12;99846.00;;;20.70
19644;BMP180;9970;-36.854;174.870;2023-02-15T08:06:51;99843.00;;;20.70
19644;BMP180;9970;-36.854;174.870;2023-02-15T08:09:22;99844.00;;;20.70
19644;BMP180;9970;-36.854;174.870;2023-02-15T08:11:55;99836.00;;;20.60
19644;BMP180;9970;-36.854;174.870;2023-02-15T08:14:28;99848.00;;;20.60
19644;BMP180;9970;-36.854;174.870;2023-02-15T08:17:01;99849.00;;;20.60
19644;BMP180;9970;-36.854;174.870;2023-02-15T08:19:35;99860.00;;;20.60
19644;BMP180;9970;-36.854;174.870;2023-02-15T08:22:10;99870.00;;;20.60
19644;BMP180;9970;-36.854;174.870;2023-02-15T08:24:43;99882.00;;;20.50
19644;BMP180;9970;-36.854;174.870;2023-02-15T08:27:16;99889.00;;;20.50
19644;BMP180;9970;-36.854;174.870;2023-02-15T08:29:48;99884.00;;;20.50
19644;BMP180;9970;-36.854;174.870;2023-02-15T08:32:21;99896.00;;;20.50
19644;BMP180;9970;-36.854;174.870;2023-02-15T08:34:54;99898.00;;;20.40
19644;BMP180;9970;-36.854;174.870;2023-02-15T08:37:30;99902.00;;;20.40
19644;BMP180;9970;-36.854;174.870;2023-02-15T08:40:03;99903.00;;;20.40
19644;BMP180;9970;-36.854;174.870;2023-02-15T08:42:36;99904.00;;;20.40
19644;BMP180;9970;-36.854;174.870;2023-02-15T08:45:09;99903.00;;;20.40
19644;BMP180;9970;-36.854;174.870;2023-02-15T08:47:42;99899.00;;;20.30
19644;BMP180;9970;-36.854;174.870;2023-02-15T08:50:15;99912.00;;;20.30
19644;BMP180;9970;-36.854;174.870;2023-02-15T08:52:48;99913.00;;;20.30
19644;BMP180;9970;-36.854;174.870;2023-02-15T08:55:21;99918.00;;;20.30
19644;BMP180;9970;-36.854;174.870;2023-02-15T08:57:54;99916.00;;;20.30
19644;BMP180;9970;-36.854;174.870;2023-02-15T09:00:27;99913.00;;;20.20
19644;BMP180;9970;-36.854;174.870;2023-02-15T09:03:01;99918.00;;;20.20
19644;BMP180;9970;-36.854;174.870;2023-02-15T09:05:35;99928.00;;;20.20
19644;BMP180;9970;-36.854;174.870;2023-02-15T09:08:07;99928.00;;;20.20
19644;BMP180;9970;-36.854;174.870;2023-02-15T09:10:45;99923.00;;;20.20
19644;BMP180;9970;-36.854;174.870;2023-02-15T09:13:18;99930.00;;;20.20
19644;BMP180;9970;-36.854;174.870;2023-02-15T09:15:51;99935.00;;;20.10
19644;BMP180;9970;-36.854;174.870;2023-02-15T09:18:25;99934.00;;;20.10
19644;BMP180;9970;-36.854;174.870;2023-02-15T09:21:03;99938.00;;;20.10
19644;BMP180;9970;-36.854;174.870;2023-02-15T09:23:32;99937.00;;;20.10
19644;BMP180;9970;-36.854;174.870;2023-02-15T09:26:07;99937.00;;;20.10
19644;BMP180;9970;-36.854;174.870;2023-02-15T09:28:40;99933.00;;;20.00
19644;BMP180;9970;-36.854;174.870;2023-02-15T09:31:15;99930.00;;;20.00
19644;BMP180;9970;-36.854;174.870;2023-02-15T09:33:48;99925.00;;;20.00
19644;BMP180;9970;-36.854;174.870;2023-02-15T09:36:23;99930.00;;;20.00
19644;BMP180;9970;-36.854;174.870;2023-02-15T09:39:05;99929.00;;;20.00
19644;BMP180;9970;-36.854;174.870;2023-02-15T09:44:57;99949.00;;;19.90
19644;BMP180;9970;-36.854;174.870;2023-02-15T09:56:23;99927.00;;;19.80
19644;BMP180;9970;-36.854;174.870;2023-02-15T09:59:01;99915.00;;;19.80
19644;BMP180;9970;-36.854;174.870;2023-02-15T10:01:48;99920.00;;;19.80
19644;BMP180;9970;-36.854;174.870;2023-02-15T10:10:14;99913.00;;;19.80
19644;BMP180;9970;-36.854;174.870;2023-02-15T10:15:57;99927.00;;;19.70
19644;BMP180;9970;-36.854;174.870;2023-02-15T10:18:46;99923.00;;;19.70
19644;BMP180;9970;-36.854;174.870;2023-02-15T10:21:36;99926.00;;;19.70
19644;BMP180;9970;-36.854;174.870;2023-02-15T10:24:34;99935.00;;;19.70
19644;BMP180;9970;-36.854;174.870;2023-02-15T10:27:12;99944.00;;;19.70
19644;BMP180;9970;-36.854;174.870;2023-02-15T10:29:56;99943.00;;;19.60
19644;BMP180;9970;-36.854;174.870;2023-02-15T10:32:27;99942.00;;;19.60
19644;BMP180;9970;-36.854;174.870;2023-02-15T10:35:08;99947.00;;;19.70
19644;BMP180;9970;-36.854;174.870;2023-02-15T10:37:55;99947.00;;;19.70
19644;BMP180;9970;-36.854;174.870;2023-02-15T10:40:46;99947.00;;;19.70
19644;BMP180;9970;-36.854;174.870;2023-02-15T10:46:10;99955.00;;;19.70
19644;BMP180;9970;-36.854;174.870;2023-02-15T10:57:31;99948.00;;;19.70
19644;BMP180;9970;-36.854;174.870;2023-02-15T11:00:08;99942.00;;;19.70
19644;BMP180;9970;-36.854;174.870;2023-02-15T11:02:57;99934.00;;;19.70
19644;BMP180;9970;-36.854;174.870;2023-02-15T11:05:41;99949.00;;;19.70
19644;BMP180;9970;-36.854;174.870;2023-02-15T11:08:13;99935.00;;;19.70
19644;BMP180;9970;-36.854;174.870;2023-02-15T11:11:01;99937.00;;;19.70
19644;BMP180;9970;-36.854;174.870;2023-02-15T11:13:33;99936.00;;;19.70
19644;BMP180;9970;-36.854;174.870;2023-02-15T11:16:10;99931.00;;;19.70
19644;BMP180;9970;-36.854;174.870;2023-02-15T11:18:47;99920.00;;;19.70
19644;BMP180;9970;-36.854;174.870;2023-02-15T11:21:24;99931.00;;;19.70
19644;BMP180;9970;-36.854;174.870;2023-02-15T11:23:57;99933.00;;;19.70
19644;BMP180;9970;-36.854;174.870;2023-02-15T11:26:41;99943.00;;;19.70
19644;BMP180;9970;-36.854;174.870;2023-02-15T11:37:36;99947.00;;;19.80
19644;BMP180;9970;-36.854;174.870;2023-02-15T11:42:56;99938.00;;;19.80
19644;BMP180;9970;-36.854;174.870;2023-02-15T11:45:30;99936.00;;;19.80
19644;BMP180;9970;-36.854;174.870;2023-02-15T11:48:11;99947.00;;;19.80
19644;BMP180;9970;-36.854;174.870;2023-02-15T11:50:45;99947.00;;;19.80
19644;BMP180;9970;-36.854;174.870;2023-02-15T11:53:20;99941.00;;;19.80
19644;BMP180;9970;-36.854;174.870;2023-02-15T11:56:01;99948.00;;;19.80
19644;BMP180;9970;-36.854;174.870;2023-02-15T11:58:55;99939.00;;;19.80
19644;BMP180;9970;-36.854;174.870;2023-02-15T12:01:35;99941.00;;;19.80
19644;BMP180;9970;-36.854;174.870;2023-02-15T12:04:34;99941.00;;;19.80
19644;BMP180;9970;-36.854;174.870;2023-02-15T12:10:25;99933.00;;;19.70
19644;BMP180;9970;-36.854;174.870;2023-02-15T12:13:15;99944.00;;;19.70
19644;BMP180;9970;-36.854;174.870;2023-02-15T12:15:52;99945.00;;;19.70
19644;BMP180;9970;-36.854;174.870;2023-02-15T12:18:36;99943.00;;;19.70
19644;BMP180;9970;-36.854;174.870;2023-02-15T12:21:30;99942.00;;;19.70
19644;BMP180;9970;-36.854;174.870;2023-02-15T12:24:09;99949.00;;;19.70
19644;BMP180;9970;-36.854;174.870;2023-02-15T12:26:55;99953.00;;;19.70
19644;BMP180;9970;-36.854;174.870;2023-02-15T12:29:21;99948.00;;;19.70
19644;BMP180;9970;-36.854;174.870;2023-02-15T12:31:56;99957.00;;;19.70
19644;BMP180;9970;-36.854;174.870;2023-02-15T12:34:36;99952.00;;;19.70
19644;BMP180;9970;-36.854;174.870;2023-02-15T12:37:14;99953.00;;;19.70
19644;BMP180;9970;-36.854;174.870;2023-02-15T12:40:29;99953.00;;;19.70
19644;BMP180;9970;-36.854;174.870;2023-02-15T12:42:18;99946.00;;;19.70
19644;BMP180;9970;-36.854;174.870;2023-02-15T12:45:03;99951.00;;;19.70
19644;BMP180;9970;-36.854;174.870;2023-02-15T12:47:35;99940.00;;;19.70
19644;BMP180;9970;-36.854;174.870;2023-02-15T12:52:46;99939.00;;;19.70
19644;BMP180;9970;-36.854;174.870;2023-02-15T12:55:24;99943.00;;;19.70
19644;BMP180;9970;-36.854;174.870;2023-02-15T12:58:08;99940.00;;;19.70
19644;BMP180;9970;-36.854;174.870;2023-02-15T13:00:42;99942.00;;;19.70
19644;BMP180;9970;-36.854;174.870;2023-02-15T13:03:19;99940.00;;;19.70
19644;BMP180;9970;-36.854;174.870;2023-02-15T13:05:55;99931.00;;;19.70
19644;BMP180;9970;-36.854;174.870;2023-02-15T13:08:33;99927.00;;;19.70
19644;BMP180;9970;-36.854;174.870;2023-02-15T13:11:11;99928.00;;;19.60
19644;BMP180;9970;-36.854;174.870;2023-02-15T13:13:54;99927.00;;;19.60
19644;BMP180;9970;-36.854;174.870;2023-02-15T13:16:32;99930.00;;;19.60
19644;BMP180;9970;-36.854;174.870;2023-02-15T13:19:12;99932.00;;;19.60
19644;BMP180;9970;-36.854;174.870;2023-02-15T13:21:48;99926.00;;;19.60
19644;BMP180;9970;-36.854;174.870;2023-02-15T13:24:35;99931.00;;;19.60
19644;BMP180;9970;-36.854;174.870;2023-02-15T13:27:19;99935.00;;;19.60
19644;BMP180;9970;-36.854;174.870;2023-02-15T13:29:54;99929.00;;;19.60
19644;BMP180;9970;-36.854;174.870;2023-02-15T13:32:41;99930.00;;;19.60
19644;BMP180;9970;-36.854;174.870;2023-02-15T13:35:18;99935.00;;;19.70
19644;BMP180;9970;-36.854;174.870;2023-02-15T13:38:11;99925.00;;;19.70
19644;BMP180;9970;-36.854;174.870;2023-02-15T13:41:01;99920.00;;;19.60
19644;BMP180;9970;-36.854;174.870;2023-02-15T13:52:18;99925.00;;;19.60
19644;BMP180;9970;-36.854;174.870;2023-02-15T13:54:53;99922.00;;;19.60
19644;BMP180;9970;-36.854;174.870;2023-02-15T13:57:53;99924.00;;;19.60
19644;BMP180;9970;-36.854;174.870;2023-02-15T14:00:30;99922.00;;;19.60
19644;BMP180;9970;-36.854;174.870;2023-02-15T14:03:27;99925.00;;;19.60
19644;BMP180;9970;-36.854;174.870;2023-02-15T14:08:38;99918.00;;;19.60
19644;BMP180;9970;-36.854;174.870;2023-02-15T14:11:27;99922.00;;;19.60
19644;BMP180;9970;-36.854;174.870;2023-02-15T14:14:11;99923.00;;;19.60
19644;BMP180;9970;-36.854;174.870;2023-02-15T14:17:09;99924.00;;;19.70
19644;BMP180;9970;-36.854;174.870;2023-02-15T14:22:59;99925.00;;;19.70
19644;BMP180;9970;-36.854;174.870;2023-02-15T14:28:15;99917.00;;;19.60
19644;BMP180;9970;-36.854;174.870;2023-02-15T14:30:49;99928.00;;;19.70
19644;BMP180;9970;-36.854;174.870;2023-02-15T14:34:07;99936.00;;;19.70
19644;BMP180;9970;-36.854;174.870;2023-02-15T14:36:15;99924.00;;;19.70
19644;BMP180;9970;-36.854;174.870;2023-02-15T14:41:49;99924.00;;;19.70
19644;BMP180;9970;-36.854;174.870;2023-02-15T14:44:37;99925.00;;;19.70
19644;BMP180;9970;-36.854;174.870;2023-02-15T14:47:04;99926.00;;;19.70
19644;BMP180;9970;-36.854;174.870;2023-02-15T14:49:37;99931.00;;;19.70
19644;BMP180;9970;-36.854;174.870;2023-02-15T14:52:10;99928.00;;;19.70
19644;BMP180;9970;-36.854;174.870;2023-02-15T14:57:22;99920.00;;;19.70
19644;BMP180;9970;-36.854;174.870;2023-02-15T15:00:00;99915.00;;;19.70
19644;BMP180;9970;-36.854;174.870;2023-02-15T15:02:48;99923.00;;;19.70
19644;BMP180;9970;-36.854;174.870;2023-02-15T15:05:34;99928.00;;;19.70
19644;BMP180;9970;-36.854;174.870;2023-02-15T15:08:17;99922.00;;;19.70
19644;BMP180;9970;-36.854;174.870;2023-02-15T15:10:44;99925.00;;;19.70
19644;BMP180;9970;-36.854;174.870;2023-02-15T15:13:44;99924.00;;;19.70
19644;BMP180;9970;-36.854;174.870;2023-02-15T15:18:49;99922.00;;;19.70
19644;BMP180;9970;-36.854;174.870;2023-02-15T15:27:44;99913.00;;;19.70
19644;BMP180;9970;-36.854;174.870;2023-02-15T15:32:59;99910.00;;;19.70
19644;BMP180;9970;-36.854;174.870;2023-02-15T15:49:34;99915.00;;;19.60
19644;BMP180;9970;-36.854;174.870;2023-02-15T15:52:18;99926.00;;;19.70
19644;BMP180;9970;-36.854;174.870;2023-02-15T15:55:02;99938.00;;;19.60
19644;BMP180;9970;-36.854;174.870;2023-02-15T15:57:39;99942.00;;;19.60
19644;BMP180;9970;-36.854;174.870;2023-02-15T16:03:13;99922.00;;;19.60
19644;BMP180;9970;-36.854;174.870;2023-02-15T16:05:41;99931.00;;;19.60
19644;BMP180;9970;-36.854;174.870;2023-02-15T16:08:14;99937.00;;;19.60
19644;BMP180;9970;-36.854;174.870;2023-02-15T16:10:49;99946.00;;;19.60
19644;BMP180;9970;-36.854;174.870;2023-02-15T16:13:22;99946.00;;;19.60
19644;BMP180;9970;-36.854;174.870;2023-02-15T16:15:55;99943.00;;;19.60
19644;BMP180;9970;-36.854;174.870;2023-02-15T16:18:29;99949.00;;;19.60
19644;BMP180;9970;-36.854;174.870;2023-02-15T16:21:03;99951.00;;;19.60
19644;BMP180;9970;-36.854;174.870;2023-02-15T16:23:47;99946.00;;;19.60
19644;BMP180;9970;-36.854;174.870;2023-02-15T16:29:25;99936.00;;;19.60
19644;BMP180;9970;-36.854;174.870;2023-02-15T16:32:14;99932.00;;;19.60
19644;BMP180;9970;-36.854;174.870;2023-02-15T16:34:39;99938.00;;;19.60
19644;BMP180;9970;-36.854;174.870;2023-02-15T16:37:17;99936.00;;;19.60
19644;BMP180;9970;-36.854;174.870;2023-02-15T16:39:50;99934.00;;;19.60
19644;BMP180;9970;-36.854;174.870;2023-02-15T16:42:25;99942.00;;;19.60
19644;BMP180;9970;-36.854;174.870;2023-02-15T16:45:12;99940.00;;;19.60